Time;durP1;ratioP1;P1;durP2;ratioP2;P2;SDS_P1;SDS_P2;PMS_P1;PMS_P2;Temp;Humidity;BMP_temperature;BMP_pressure;BME280_temperature;BME280_humidity;BME280_pressure;Samples;Min_cycle;Max_cycle;Signal;HPM_P1;HPM_P2
2022/08/31 00:04:01;;;;;;;;;;;15.40;99.90;;;;;;4973369;28;19930;-83
2022/08/31 00:06:29;;;;;;;;;;;15.40;99.90;;;;;;4961628;28;19932;-81
2022/08/31 00:08:56;;;;;;;;;;;15.40;99.90;;;;;;4959192;28;19937;-82
2022/08/31 00:11:27;;;;;;;;;;;15.30;99.90;;;;;;4973185;28;19934;-83
2022/08/31 00:13:54;;;;;;;;;;;15.20;99.90;;;;;;4971730;28;19929;-82
2022/08/31 00:16:23;;;;;;;;;;;15.20;99.90;;;;;;4984650;28;19937;-82
2022/08/31 00:18:51;;;;;;;;;;;15.20;99.90;;;;;;4970549;28;19983;-82
2022/08/31 00:21:18;;;;;;;;;;;15.10;99.90;;;;;;4977832;28;19929;-82
2022/08/31 00:23:44;;;;;;;;;;;15.10;99.90;;;;;;4972810;28;19930;-82
2022/08/31 00:26:10;;;;;;;;;;;15.00;99.90;;;;;;4943220;28;20091;-83
2022/08/31 00:28:36;;;;;;;;;;;15.00;99.90;;;;;;4963765;28;19934;-82
2022/08/31 00:31:02;;;;;;;;;;;15.00;99.90;;;;;;4954989;28;19936;-86
2022/08/31 00:33:28;;;;;;;;;;;15.00;99.90;;;;;;4974956;28;19926;-82
2022/08/31 00:36:30;;;;;;;;;;;14.90;99.90;;;;;;4977427;28;19974;-85
2022/08/31 00:45:38;;;;;;;;;;;14.80;99.90;;;;;;4975812;28;20607;-82
2022/08/31 00:48:03;;;;;;;;;;;14.70;99.90;;;;;;4984043;28;19929;-83
2022/08/31 00:50:29;;;;;;;;;;;14.70;99.90;;;;;;4990132;28;19925;-82
2022/08/31 00:52:56;;;;;;;;;;;14.70;99.90;;;;;;4953664;28;19936;-82
2022/08/31 00:55:33;;;;;;;;;;;14.70;99.90;;;;;;4959909;28;20233;-82
2022/08/31 00:58:01;;;;;;;;;;;14.60;99.90;;;;;;4956901;28;19961;-82
2022/08/31 01:00:27;;;;;;;;;;;14.60;99.90;;;;;;4978519;28;20039;-82
2022/08/31 01:02:53;;;;;;;;;;;14.50;99.90;;;;;;4964390;28;19931;-82
2022/08/31 01:05:19;;;;;;;;;;;14.50;99.90;;;;;;4975539;28;20391;-82
2022/08/31 01:07:49;;;;;;;;;;;14.50;99.90;;;;;;4957994;28;19938;-81
2022/08/31 01:10:16;;;;;;;;;;;14.40;99.90;;;;;;4973754;28;19936;-83
2022/08/31 01:12:44;;;;;;;;;;;14.40;99.90;;;;;;4972418;28;20045;-83
2022/08/31 01:15:10;;;;;;;;;;;14.30;99.90;;;;;;4960349;28;20483;-83
2022/08/31 01:17:36;;;;;;;;;;;14.30;99.90;;;;;;4959282;28;20463;-82
2022/08/31 01:20:05;;;;;;;;;;;14.30;99.90;;;;;;4974710;28;19980;-81
2022/08/31 01:22:37;;;;;;;;;;;14.30;99.90;;;;;;4973751;28;19984;-83
2022/08/31 01:25:05;;;;;;;;;;;14.20;99.90;;;;;;4979538;28;19936;-81
2022/08/31 01:27:32;;;;;;;;;;;14.20;99.90;;;;;;4974814;28;20014;-80
2022/08/31 01:29:58;;;;;;;;;;;14.20;99.90;;;;;;4958628;28;19925;-82
2022/08/31 01:32:24;;;;;;;;;;;14.20;99.90;;;;;;4954476;28;19930;-82
2022/08/31 01:34:51;;;;;;;;;;;14.10;99.90;;;;;;4959637;28;19933;-84
2022/08/31 01:37:17;;;;;;;;;;;14.10;99.90;;;;;;4978158;28;20016;-82
2022/08/31 01:39:43;;;;;;;;;;;14.10;99.90;;;;;;4980489;28;20012;-81
2022/08/31 01:42:09;;;;;;;;;;;14.10;99.90;;;;;;4978098;28;20308;-81
2022/08/31 01:44:35;;;;;;;;;;;14.10;99.90;;;;;;4974382;28;19948;-80
2022/08/31 01:47:01;;;;;;;;;;;14.00;99.90;;;;;;4977623;28;19941;-82
2022/08/31 01:49:27;;;;;;;;;;;14.00;99.90;;;;;;4983585;28;19926;-81
2022/08/31 01:51:52;;;;;;;;;;;14.00;99.90;;;;;;4979707;28;19945;-81
2022/08/31 01:54:19;;;;;;;;;;;14.00;99.90;;;;;;4964290;28;19981;-81
2022/08/31 01:56:46;;;;;;;;;;;14.00;99.90;;;;;;4976961;28;19937;-82
2022/08/31 01:59:13;;;;;;;;;;;14.00;99.90;;;;;;4960330;28;19941;-80
2022/08/31 02:01:40;;;;;;;;;;;13.90;99.90;;;;;;4973253;28;19929;-81
2022/08/31 02:04:07;;;;;;;;;;;13.90;99.90;;;;;;4954508;28;19980;-81
2022/08/31 02:09:05;;;;;;;;;;;13.70;99.90;;;;;;5007337;23;19930;-79
2022/08/31 02:11:31;;;;;;;;;;;13.70;99.90;;;;;;4962598;28;19926;-82
2022/08/31 02:13:57;;;;;;;;;;;13.70;99.90;;;;;;4968339;28;20020;-79
2022/08/31 02:16:23;;;;;;;;;;;13.70;99.90;;;;;;4964289;28;19930;-81
2022/08/31 02:18:49;;;;;;;;;;;13.70;99.90;;;;;;4945204;28;19937;-80
2022/08/31 02:21:15;;;;;;;;;;;13.70;99.90;;;;;;4972448;28;19926;-79
2022/08/31 02:23:41;;;;;;;;;;;13.70;99.90;;;;;;4969657;28;19930;-80
2022/08/31 02:26:07;;;;;;;;;;;13.70;99.90;;;;;;4964888;28;19934;-80
2022/08/31 02:28:33;;;;;;;;;;;13.70;99.90;;;;;;4994441;28;19933;-79
2022/08/31 02:30:59;;;;;;;;;;;13.60;99.90;;;;;;4983091;28;20292;-80
2022/08/31 02:33:25;;;;;;;;;;;13.60;99.90;;;;;;4949080;28;19930;-79
2022/08/31 02:35:51;;;;;;;;;;;13.60;99.90;;;;;;4955930;28;19977;-81
2022/08/31 02:38:17;;;;;;;;;;;13.60;99.90;;;;;;4989673;28;20040;-81
2022/08/31 02:40:43;;;;;;;;;;;13.60;99.90;;;;;;4984166;28;20057;-79
2022/08/31 02:43:09;;;;;;;;;;;13.60;99.90;;;;;;4989807;28;20587;-80
2022/08/31 02:45:37;;;;;;;;;;;13.60;99.90;;;;;;4976630;28;19930;-82
2022/08/31 02:48:04;;;;;;;;;;;13.60;99.90;;;;;;4959532;28;19929;-80
2022/08/31 02:50:30;;;;;;;;;;;13.60;99.90;;;;;;4960585;28;20432;-82
2022/08/31 02:52:56;;;;;;;;;;;13.60;99.90;;;;;;4963122;28;19930;-81
2022/08/31 02:55:25;;;;;;;;;;;13.50;99.90;;;;;;4955100;28;19926;-83
2022/08/31 02:57:51;;;;;;;;;;;13.50;99.90;;;;;;4977281;28;19984;-81
2022/08/31 03:00:18;;;;;;;;;;;13.50;99.90;;;;;;4976479;28;19926;-79
2022/08/31 03:02:44;;;;;;;;;;;13.50;99.90;;;;;;4960043;28;20424;-81
2022/08/31 03:05:10;;;;;;;;;;;13.50;99.90;;;;;;4954189;28;20065;-81
2022/08/31 03:07:36;;;;;;;;;;;13.50;99.90;;;;;;4967846;28;19941;-79
2022/08/31 03:10:07;;;;;;;;;;;13.50;99.90;;;;;;4966486;28;19932;-84
2022/08/31 03:12:33;;;;;;;;;;;13.40;99.90;;;;;;4983917;28;19929;-84
2022/08/31 03:14:59;;;;;;;;;;;13.40;99.90;;;;;;4966339;28;20043;-80
2022/08/31 03:17:24;;;;;;;;;;;13.40;99.90;;;;;;4964999;28;19961;-82
2022/08/31 03:19:53;;;;;;;;;;;13.40;99.90;;;;;;4961014;28;19929;-82
2022/08/31 03:22:19;;;;;;;;;;;13.40;99.90;;;;;;4965886;28;20023;-80
2022/08/31 03:24:44;;;;;;;;;;;13.40;99.90;;;;;;4959438;28;19929;-81
2022/08/31 03:27:10;;;;;;;;;;;13.40;99.90;;;;;;4947106;28;20071;-84
2022/08/31 03:29:36;;;;;;;;;;;13.40;99.90;;;;;;4963261;28;19933;-79
2022/08/31 03:32:02;;;;;;;;;;;13.30;99.90;;;;;;4991960;28;20555;-82
2022/08/31 03:34:27;;;;;;;;;;;13.30;99.90;;;;;;4969228;28;19931;-82
2022/08/31 03:36:53;;;;;;;;;;;13.30;99.90;;;;;;4979133;28;20401;-81
2022/08/31 03:39:19;;;;;;;;;;;13.30;99.90;;;;;;4966247;28;19925;-82
2022/08/31 03:41:45;;;;;;;;;;;13.30;99.90;;;;;;4975356;28;20531;-81
2022/08/31 03:44:11;;;;;;;;;;;13.30;99.90;;;;;;4939324;28;19929;-79
2022/08/31 03:46:38;;;;;;;;;;;13.40;99.90;;;;;;4958783;28;20498;-78
2022/08/31 03:49:06;;;;;;;;;;;13.40;99.90;;;;;;4981291;28;19926;-81
2022/08/31 03:51:32;;;;;;;;;;;13.40;99.90;;;;;;4970205;28;19925;-82
2022/08/31 03:53:57;;;;;;;;;;;13.40;99.90;;;;;;4968572;28;20328;-80
2022/08/31 03:56:23;;;;;;;;;;;13.40;99.90;;;;;;4983683;28;19943;-81
2022/08/31 03:58:49;;;;;;;;;;;13.40;99.90;;;;;;4954487;28;19926;-80
2022/08/31 04:01:15;;;;;;;;;;;13.40;99.90;;;;;;4966766;28;19933;-79
2022/08/31 04:03:41;;;;;;;;;;;13.40;99.90;;;;;;4979032;28;19959;-82
2022/08/31 04:06:11;;;;;;;;;;;13.40;99.90;;;;;;4957788;28;19991;-79
2022/08/31 04:08:37;;;;;;;;;;;13.40;99.90;;;;;;4977059;28;19930;-81
2022/08/31 04:11:08;;;;;;;;;;;13.40;99.90;;;;;;4966166;28;19925;-80
2022/08/31 04:13:35;;;;;;;;;;;13.40;99.90;;;;;;4974490;28;20292;-81
2022/08/31 04:16:01;;;;;;;;;;;13.40;99.90;;;;;;4975950;28;19929;-80
2022/08/31 04:18:26;;;;;;;;;;;13.30;99.90;;;;;;4970937;28;19984;-80
2022/08/31 04:20:52;;;;;;;;;;;13.40;99.90;;;;;;4958015;28;19932;-82
2022/08/31 04:23:18;;;;;;;;;;;13.30;99.90;;;;;;4961754;28;19941;-83
2022/08/31 04:25:44;;;;;;;;;;;13.30;99.90;;;;;;4966998;28;19932;-81
2022/08/31 04:28:11;;;;;;;;;;;13.30;99.90;;;;;;4963741;28;19926;-82
2022/08/31 04:30:39;;;;;;;;;;;13.30;99.90;;;;;;4965460;28;20388;-81
2022/08/31 04:33:05;;;;;;;;;;;13.30;99.90;;;;;;4964849;28;19930;-82
2022/08/31 04:35:31;;;;;;;;;;;13.30;99.90;;;;;;4986118;28;19930;-80
2022/08/31 04:37:56;;;;;;;;;;;13.30;99.90;;;;;;4957667;28;19948;-81
2022/08/31 04:40:22;;;;;;;;;;;13.20;99.90;;;;;;4969814;28;19972;-84
2022/08/31 04:42:48;;;;;;;;;;;13.20;99.90;;;;;;4955374;28;19929;-83
2022/08/31 04:45:15;;;;;;;;;;;13.20;99.90;;;;;;4953677;28;19925;-83
2022/08/31 04:47:41;;;;;;;;;;;13.20;99.90;;;;;;4972856;28;20028;-82
2022/08/31 04:50:08;;;;;;;;;;;13.20;99.90;;;;;;4988540;28;19971;-82
2022/08/31 04:52:35;;;;;;;;;;;13.20;99.90;;;;;;4984674;28;19926;-82
2022/08/31 04:55:00;;;;;;;;;;;13.20;99.90;;;;;;4964305;28;20512;-84
2022/08/31 04:57:26;;;;;;;;;;;13.20;99.90;;;;;;4977296;28;19925;-82
2022/08/31 04:59:52;;;;;;;;;;;13.20;99.90;;;;;;4954688;28;19926;-83
2022/08/31 05:02:18;;;;;;;;;;;13.20;99.90;;;;;;4955346;28;19933;-83
2022/08/31 05:04:44;;;;;;;;;;;13.20;99.90;;;;;;4956769;28;20373;-80
2022/08/31 05:07:09;;;;;;;;;;;13.20;99.90;;;;;;4983650;28;19926;-82
2022/08/31 05:09:35;;;;;;;;;;;13.30;99.90;;;;;;4964802;28;19934;-81
2022/08/31 05:12:01;;;;;;;;;;;13.30;99.90;;;;;;4963749;28;19936;-81
2022/08/31 05:14:27;;;;;;;;;;;13.30;99.90;;;;;;4955302;28;19952;-82
2022/08/31 05:16:53;;;;;;;;;;;13.40;99.90;;;;;;4949669;28;20373;-80
2022/08/31 05:19:19;;;;;;;;;;;13.30;99.90;;;;;;4963820;28;19973;-80
2022/08/31 05:21:45;;;;;;;;;;;13.20;99.90;;;;;;4961847;28;20403;-80
2022/08/31 05:24:12;;;;;;;;;;;13.20;99.90;;;;;;4959099;28;19929;-80
2022/08/31 05:26:43;;;;;;;;;;;13.20;99.90;;;;;;4951781;28;20010;-81
2022/08/31 05:29:10;;;;;;;;;;;13.10;99.90;;;;;;4973980;28;19948;-81
2022/08/31 05:31:37;;;;;;;;;;;13.00;99.90;;;;;;4973446;28;19984;-80
2022/08/31 05:34:03;;;;;;;;;;;13.00;99.90;;;;;;4946782;28;19954;-81
2022/08/31 05:36:28;;;;;;;;;;;13.00;99.90;;;;;;4927656;28;19937;-79
2022/08/31 05:38:54;;;;;;;;;;;13.00;99.90;;;;;;4960546;28;20273;-81
2022/08/31 05:41:21;;;;;;;;;;;13.00;99.90;;;;;;4954144;28;19933;-80
2022/08/31 05:43:46;;;;;;;;;;;13.00;99.90;;;;;;4951385;28;19926;-79
2022/08/31 05:46:13;;;;;;;;;;;13.10;99.90;;;;;;4954819;28;19926;-80
2022/08/31 05:48:40;;;;;;;;;;;13.10;99.90;;;;;;4956078;28;19929;-80
2022/08/31 05:51:07;;;;;;;;;;;13.20;99.90;;;;;;4965503;28;20343;-80
2022/08/31 05:53:34;;;;;;;;;;;13.30;99.90;;;;;;4981886;28;19926;-80
2022/08/31 05:56:02;;;;;;;;;;;13.30;99.90;;;;;;4982858;28;19930;-80
2022/08/31 05:58:29;;;;;;;;;;;13.40;99.90;;;;;;4986022;28;19988;-79
2022/08/31 06:04:37;;;;;;;;;;;13.60;99.90;;;;;;5003792;28;20003;-80
2022/08/31 06:07:09;;;;;;;;;;;13.70;99.90;;;;;;4986986;28;19973;-81
2022/08/31 06:09:37;;;;;;;;;;;13.80;99.90;;;;;;4988757;28;19926;-80
2022/08/31 06:12:04;;;;;;;;;;;14.00;99.90;;;;;;4964164;28;19996;-81
2022/08/31 06:14:31;;;;;;;;;;;14.10;99.90;;;;;;4966068;28;19926;-82
2022/08/31 06:16:58;;;;;;;;;;;14.20;99.90;;;;;;4966474;28;19932;-80
2022/08/31 06:19:24;;;;;;;;;;;14.40;99.90;;;;;;4951986;28;19936;-81
2022/08/31 06:21:50;;;;;;;;;;;14.50;99.90;;;;;;4987688;28;19929;-79
2022/08/31 06:24:17;;;;;;;;;;;14.60;99.90;;;;;;4983387;28;19929;-80
2022/08/31 06:26:51;;;;;;;;;;;14.70;99.90;;;;;;4987543;28;20368;-83
2022/08/31 06:29:16;;;;;;;;;;;14.80;99.90;;;;;;4985324;28;19973;-77
2022/08/31 06:31:46;;;;;;;;;;;15.00;99.90;;;;;;4984651;28;20484;-79
2022/08/31 06:34:13;;;;;;;;;;;15.10;99.90;;;;;;4968065;28;20036;-79
2022/08/31 06:36:40;;;;;;;;;;;15.20;99.90;;;;;;4987139;28;19992;-79
2022/08/31 06:39:05;;;;;;;;;;;15.30;99.90;;;;;;4968689;28;20369;-79
2022/08/31 06:41:36;;;;;;;;;;;15.40;99.90;;;;;;4968730;28;19933;-78
2022/08/31 06:44:06;;;;;;;;;;;15.50;99.90;;;;;;4976023;28;20476;-80
2022/08/31 06:46:33;;;;;;;;;;;15.60;99.90;;;;;;5001973;28;19925;-78
2022/08/31 06:48:59;;;;;;;;;;;15.80;99.90;;;;;;4985138;28;19926;-78
2022/08/31 06:51:25;;;;;;;;;;;16.00;99.90;;;;;;4977034;28;19995;-80
2022/08/31 06:53:52;;;;;;;;;;;16.30;99.90;;;;;;4987311;28;19952;-76
2022/08/31 06:56:19;;;;;;;;;;;16.80;99.90;;;;;;4989483;28;19980;-77
2022/08/31 06:58:45;;;;;;;;;;;17.10;99.90;;;;;;4997870;28;20694;-78
2022/08/31 07:01:13;;;;;;;;;;;17.10;99.90;;;;;;4969842;28;19926;-76
2022/08/31 07:03:40;;;;;;;;;;;17.10;99.90;;;;;;4974268;28;20492;-78
2022/08/31 07:06:07;;;;;;;;;;;17.10;99.90;;;;;;4975456;28;20031;-78
2022/08/31 07:08:33;;;;;;;;;;;17.20;99.90;;;;;;4965807;28;19933;-80
2022/08/31 07:10:59;;;;;;;;;;;17.50;99.90;;;;;;4986217;28;19941;-80
2022/08/31 07:13:25;;;;;;;;;;;18.30;99.90;;;;;;4980716;28;19934;-85
2022/08/31 07:15:51;;;;;;;;;;;;;;;;;;4967854;28;19934;-79
2022/08/31 07:18:17;;;;;;;;;;;20.40;99.90;;;;;;4979183;28;19921;-78
2022/08/31 07:20:43;;;;;;;;;;;21.50;99.90;;;;;;4978386;28;20044;-79
2022/08/31 07:23:09;;;;;;;;;;;22.20;99.90;;;;;;4961467;28;19930;-80
2022/08/31 07:25:35;;;;;;;;;;;22.80;99.90;;;;;;4948637;28;19929;-78
2022/08/31 07:28:01;;;;;;;;;;;22.80;96.80;;;;;;4955280;28;20074;-79
2022/08/31 07:30:27;;;;;;;;;;;22.70;98.50;;;;;;4980446;28;20319;-78
2022/08/31 07:32:53;;;;;;;;;;;22.60;95.80;;;;;;4989845;28;20365;-79
2022/08/31 07:35:18;;;;;;;;;;;21.90;96.90;;;;;;4963091;28;20312;-77
2022/08/31 07:43:13;;;;;;;;;;;20.80;99.00;;;;;;4981999;28;20476;-80
2022/08/31 07:45:39;;;;;;;;;;;20.80;99.90;;;;;;4961641;28;19930;-78
2022/08/31 07:48:05;;;;;;;;;;;20.70;99.90;;;;;;4983127;28;19980;-77
2022/08/31 07:50:31;;;;;;;;;;;21.00;99.90;;;;;;4968090;28;20391;-79
2022/08/31 07:52:59;;;;;;;;;;;21.80;99.90;;;;;;4973333;28;19996;-81
2022/08/31 07:55:25;;;;;;;;;;;22.80;97.50;;;;;;4985958;28;20448;-80
2022/08/31 07:57:53;;;;;;;;;;;23.70;96.10;;;;;;5002841;28;19936;-77
2022/08/31 08:00:21;;;;;;;;;;;24.40;95.00;;;;;;4981225;28;19926;-77
2022/08/31 08:02:48;;;;;;;;;;;24.80;92.10;;;;;;4971403;28;19991;-80
2022/08/31 08:05:21;;;;;;;;;;;24.80;90.30;;;;;;4983877;28;19929;-78
2022/08/31 08:07:52;;;;;;;;;;;25.20;88.50;;;;;;4975262;28;19926;-78
2022/08/31 08:10:20;;;;;;;;;;;25.50;86.70;;;;;;4986697;28;19965;-78
2022/08/31 08:12:55;;;;;;;;;;;26.00;84.60;;;;;;4979774;28;19999;-80
2022/08/31 08:15:49;;;;;;;;;;;25.80;83.10;;;;;;4964456;28;19929;-78
2022/08/31 08:18:15;;;;;;;;;;;25.70;79.90;;;;;;4981563;28;19926;-78
2022/08/31 08:20:41;;;;;;;;;;;25.90;81.00;;;;;;4965240;28;19948;-77
2022/08/31 08:23:13;;;;;;;;;;;26.20;81.10;;;;;;4982868;28;20203;-80
2022/08/31 08:25:38;;;;;;;;;;;26.50;82.30;;;;;;4987550;28;19965;-80
2022/08/31 08:28:06;;;;;;;;;;;26.90;79.90;;;;;;4983128;28;20048;-81
2022/08/31 08:30:32;;;;;;;;;;;27.10;78.70;;;;;;4967334;28;20420;-82
2022/08/31 08:33:14;;;;;;;;;;;27.10;77.80;;;;;;4969875;28;19993;-78
2022/08/31 08:35:40;;;;;;;;;;;27.10;78.50;;;;;;4980898;28;19929;-79
2022/08/31 08:38:06;;;;;;;;;;;26.90;76.60;;;;;;4967157;28;20416;-81
2022/08/31 08:40:38;;;;;;;;;;;26.50;76.50;;;;;;4964886;28;20025;-81
2022/08/31 08:43:04;;;;;;;;;;;26.20;77.10;;;;;;4984101;28;19933;-77
2022/08/31 08:45:31;;;;;;;;;;;25.60;77.80;;;;;;4987186;28;19929;-77
2022/08/31 08:47:57;;;;;;;;;;;25.40;79.60;;;;;;4967966;28;19956;-78
2022/08/31 08:50:27;;;;;;;;;;;25.10;79.30;;;;;;4983434;28;20023;-79
2022/08/31 08:52:55;;;;;;;;;;;24.50;80.10;;;;;;4959323;28;20461;-82
2022/08/31 08:55:25;;;;;;;;;;;23.90;80.70;;;;;;4976752;28;19933;-76
2022/08/31 08:57:54;;;;;;;;;;;23.20;81.50;;;;;;4978810;28;19929;-75
2022/08/31 09:04:15;;;;;;;;;;;22.30;85.20;;;;;;4991551;28;19924;-77
2022/08/31 09:06:53;;;;;;;;;;;21.80;87.60;;;;;;4954875;28;20657;-76
2022/08/31 09:09:31;;;;;;;;;;;21.50;88.70;;;;;;4979059;28;19969;-84
2022/08/31 09:11:57;;;;;;;;;;;21.40;89.80;;;;;;4976755;28;19926;-75
2022/08/31 09:14:39;;;;;;;;;;;21.50;90.90;;;;;;4981104;28;19933;-79
2022/08/31 09:17:15;;;;;;;;;;;21.40;90.40;;;;;;4995534;28;20025;-78
2022/08/31 09:20:04;;;;;;;;;;;21.20;90.70;;;;;;4962341;28;19934;-79
2022/08/31 09:22:33;;;;;;;;;;;21.20;90.70;;;;;;4984646;28;20004;-76
2022/08/31 09:24:59;;;;;;;;;;;21.30;92.20;;;;;;4956131;28;19984;-81
2022/08/31 09:27:46;;;;;;;;;;;21.60;92.30;;;;;;4962418;28;19940;-77
2022/08/31 09:30:32;;;;;;;;;;;21.60;91.30;;;;;;4979115;28;20057;-78
2022/08/31 09:32:59;;;;;;;;;;;21.40;91.40;;;;;;4979323;28;19936;-78
2022/08/31 09:35:39;;;;;;;;;;;21.50;92.40;;;;;;4973829;28;19942;-80
2022/08/31 09:38:10;;;;;;;;;;;21.50;91.60;;;;;;4973593;28;19922;-78
2022/08/31 09:40:54;;;;;;;;;;;21.40;91.90;;;;;;4993633;28;19929;-77
2022/08/31 09:43:33;;;;;;;;;;;21.30;91.80;;;;;;4979628;28;19934;-79
2022/08/31 09:46:06;;;;;;;;;;;21.20;91.90;;;;;;4974699;28;20354;-80
2022/08/31 09:48:44;;;;;;;;;;;21.40;93.10;;;;;;4995422;28;19928;-76
2022/08/31 09:51:23;;;;;;;;;;;21.80;93.20;;;;;;5005448;28;19945;-76
2022/08/31 09:56:49;;;;;;;;;;;22.10;91.50;;;;;;4979599;28;19930;-75
2022/08/31 09:59:27;;;;;;;;;;;22.20;91.50;;;;;;4978116;28;19930;-76
2022/08/31 10:01:54;;;;;;;;;;;22.10;90.60;;;;;;4975938;28;20016;-76
2022/08/31 10:04:22;;;;;;;;;;;22.40;90.80;;;;;;4974221;28;20527;-80
2022/08/31 10:07:12;;;;;;;;;;;22.70;90.20;;;;;;4993771;28;20001;-79
2022/08/31 10:09:50;;;;;;;;;;;22.80;89.20;;;;;;4983670;28;19933;-79
2022/08/31 10:12:33;;;;;;;;;;;22.70;87.50;;;;;;4966624;28;20589;-78
2022/08/31 10:15:02;;;;;;;;;;;22.50;87.20;;;;;;4976812;28;19925;-78
2022/08/31 10:17:31;;;;;;;;;;;22.10;89.00;;;;;;4962368;28;19985;-78
2022/08/31 10:20:04;;;;;;;;;;;22.00;90.00;;;;;;4963572;28;19992;-80
2022/08/31 10:22:35;;;;;;;;;;;22.00;89.70;;;;;;4981583;28;19926;-75
2022/08/31 10:25:35;;;;;;;;;;;22.10;90.40;;;;;;4976075;28;20053;-81
2022/08/31 10:28:14;;;;;;;;;;;22.40;90.40;;;;;;4938157;28;20046;-76
2022/08/31 10:30:44;;;;;;;;;;;22.90;90.00;;;;;;4977372;28;19980;-78
2022/08/31 10:33:15;;;;;;;;;;;23.10;86.40;;;;;;4991980;28;19933;-76
2022/08/31 10:35:52;;;;;;;;;;;23.20;86.50;;;;;;4978591;28;19936;-76
2022/08/31 10:38:22;;;;;;;;;;;23.40;86.20;;;;;;4979679;28;19991;-77
2022/08/31 10:40:51;;;;;;;;;;;23.40;84.40;;;;;;4978151;28;20571;-76
2022/08/31 10:43:28;;;;;;;;;;;23.60;86.80;;;;;;4978628;28;20020;-76
2022/08/31 10:45:53;;;;;;;;;;;23.80;84.80;;;;;;4981391;28;19988;-76
2022/08/31 10:48:21;;;;;;;;;;;23.90;84.80;;;;;;5000290;28;19929;-81
2022/08/31 10:50:55;;;;;;;;;;;24.00;82.20;;;;;;4979598;28;19925;-79
2022/08/31 10:53:37;;;;;;;;;;;23.90;80.80;;;;;;4985733;28;19933;-81
2022/08/31 10:56:13;;;;;;;;;;;23.90;79.40;;;;;;4984842;28;19925;-80
2022/08/31 10:58:48;;;;;;;;;;;23.80;77.60;;;;;;4983526;28;20567;-79
2022/08/31 11:01:15;;;;;;;;;;;23.60;77.10;;;;;;4982139;28;19925;-77
2022/08/31 11:03:50;;;;;;;;;;;23.60;78.50;;;;;;4974277;28;19934;-77
2022/08/31 11:06:38;;;;;;;;;;;23.40;78.90;;;;;;4974916;28;19929;-78
2022/08/31 11:09:06;;;;;;;;;;;23.50;80.00;;;;;;4997976;28;19980;-77
2022/08/31 11:11:34;;;;;;;;;;;23.90;79.00;;;;;;4957561;28;19933;-80
2022/08/31 11:14:13;;;;;;;;;;;23.90;77.00;;;;;;4982006;28;19941;-81
2022/08/31 11:16:46;;;;;;;;;;;23.60;74.50;;;;;;4975802;28;19984;-82
2022/08/31 11:19:29;;;;;;;;;;;23.10;73.80;;;;;;4975004;28;19926;-77
2022/08/31 11:21:55;;;;;;;;;;;23.00;74.30;;;;;;4965845;28;19925;-76
2022/08/31 11:24:31;;;;;;;;;;;23.30;77.60;;;;;;4982561;28;19929;-79
2022/08/31 11:27:13;;;;;;;;;;;23.50;76.50;;;;;;4973083;28;20238;-77
2022/08/31 11:29:40;;;;;;;;;;;23.80;75.60;;;;;;4968598;28;19980;-77
2022/08/31 11:32:10;;;;;;;;;;;24.10;78.00;;;;;;4983247;28;19940;-84
2022/08/31 11:34:46;;;;;;;;;;;24.30;76.70;;;;;;4964016;28;19941;-82
2022/08/31 11:37:31;;;;;;;;;;;24.50;76.80;;;;;;4982743;28;20404;-79
2022/08/31 11:39:57;;;;;;;;;;;24.70;76.30;;;;;;4978225;28;19933;-80
2022/08/31 11:42:31;;;;;;;;;;;24.70;73.40;;;;;;4993939;28;20915;-78
2022/08/31 11:45:05;;;;;;;;;;;24.80;75.50;;;;;;4970255;28;19980;-79
2022/08/31 11:47:35;;;;;;;;;;;25.00;74.30;;;;;;4983977;28;19972;-81
2022/08/31 11:50:23;;;;;;;;;;;25.10;74.50;;;;;;4988199;28;19951;-78
2022/08/31 11:52:52;;;;;;;;;;;25.20;72.70;;;;;;4980440;28;19963;-77
2022/08/31 11:55:19;;;;;;;;;;;25.20;71.90;;;;;;4989213;28;19932;-79
2022/08/31 11:58:06;;;;;;;;;;;25.30;73.60;;;;;;4981113;28;20016;-77
2022/08/31 12:00:52;;;;;;;;;;;25.30;72.20;;;;;;4958393;28;20012;-75
2022/08/31 12:03:37;;;;;;;;;;;25.00;69.00;;;;;;4995591;28;20401;-76
2022/08/31 12:06:04;;;;;;;;;;;24.90;70.60;;;;;;4995807;28;19933;-79
2022/08/31 12:08:51;;;;;;;;;;;24.90;71.60;;;;;;4971419;28;19934;-78
2022/08/31 12:11:46;;;;;;;;;;;24.80;71.30;;;;;;4976635;28;19933;-76
2022/08/31 12:14:19;;;;;;;;;;;24.60;68.60;;;;;;4919348;28;19930;-79
2022/08/31 12:16:46;;;;;;;;;;;24.50;70.30;;;;;;4964148;28;19930;-78
2022/08/31 12:25:40;;;;;;;;;;;24.50;70.90;;;;;;4961193;28;19937;-78
2022/08/31 12:28:17;;;;;;;;;;;24.50;71.90;;;;;;4981988;28;19980;-81
2022/08/31 12:30:47;;;;;;;;;;;24.40;68.10;;;;;;4964649;28;19926;-79
2022/08/31 12:33:26;;;;;;;;;;;24.30;69.10;;;;;;4984155;28;19926;-88
2022/08/31 12:35:55;;;;;;;;;;;24.30;70.40;;;;;;4942344;28;20344;-80
2022/08/31 12:38:22;;;;;;;;;;;24.30;69.40;;;;;;4958253;28;19937;-80
2022/08/31 12:40:54;;;;;;;;;;;24.20;70.30;;;;;;4979326;28;19941;-79
2022/08/31 12:43:34;;;;;;;;;;;24.10;71.10;;;;;;4952397;28;20462;-80
2022/08/31 12:46:06;;;;;;;;;;;24.00;69.00;;;;;;4956042;28;19933;-80
2022/08/31 12:48:38;;;;;;;;;;;23.90;69.40;;;;;;4976525;28;20575;-80
2022/08/31 12:51:22;;;;;;;;;;;23.80;69.40;;;;;;4964660;28;19926;-81
2022/08/31 12:54:07;;;;;;;;;;;23.80;70.70;;;;;;4973583;28;19932;-82
2022/08/31 12:56:47;;;;;;;;;;;23.80;71.30;;;;;;4963168;28;20381;-83
2022/08/31 12:59:14;;;;;;;;;;;23.80;71.40;;;;;;4964292;28;19941;-84
2022/08/31 13:01:47;;;;;;;;;;;23.70;71.70;;;;;;4985007;28;19929;-82
2022/08/31 13:04:14;;;;;;;;;;;23.70;71.60;;;;;;4982972;28;20365;-81
2022/08/31 13:06:43;;;;;;;;;;;23.70;73.20;;;;;;4976546;28;19979;-83
2022/08/31 13:09:28;;;;;;;;;;;23.60;73.10;;;;;;4980746;28;19930;-81
2022/08/31 13:11:56;;;;;;;;;;;23.60;71.50;;;;;;4982737;28;19987;-82
2022/08/31 13:14:25;;;;;;;;;;;23.60;71.20;;;;;;4978757;28;20346;-83
2022/08/31 13:16:52;;;;;;;;;;;23.50;73.30;;;;;;4962205;28;19996;-80
2022/08/31 13:19:24;;;;;;;;;;;23.40;75.90;;;;;;4973679;28;19979;-81
2022/08/31 13:21:57;;;;;;;;;;;23.40;76.80;;;;;;4978303;28;20317;-82
2022/08/31 13:24:29;;;;;;;;;;;23.30;77.60;;;;;;4978501;28;19932;-80
2022/08/31 13:27:05;;;;;;;;;;;23.20;77.70;;;;;;4958931;28;19933;-81
2022/08/31 13:29:39;;;;;;;;;;;23.20;78.60;;;;;;4968803;28;20051;-81
2022/08/31 13:32:06;;;;;;;;;;;23.20;78.80;;;;;;4966971;28;20012;-81
2022/08/31 13:34:40;;;;;;;;;;;23.00;79.60;;;;;;4987503;28;19948;-83
2022/08/31 13:37:10;;;;;;;;;;;23.00;76.00;;;;;;4988757;28;19941;-83
2022/08/31 13:39:43;;;;;;;;;;;23.00;78.00;;;;;;4978675;28;20028;-79
2022/08/31 13:42:11;;;;;;;;;;;23.10;80.50;;;;;;4968668;28;19929;-85
2022/08/31 13:44:42;;;;;;;;;;;23.10;79.70;;;;;;4986662;28;19926;-81
2022/08/31 13:47:20;;;;;;;;;;;23.10;80.60;;;;;;4982363;28;19930;-85
2022/08/31 13:49:51;;;;;;;;;;;23.10;80.00;;;;;;4976634;28;19930;-82
2022/08/31 13:52:24;;;;;;;;;;;22.90;80.20;;;;;;4983410;28;19932;-82
2022/08/31 13:55:00;;;;;;;;;;;22.80;80.90;;;;;;4985313;28;19926;-81
2022/08/31 13:57:28;;;;;;;;;;;22.70;81.40;;;;;;4982585;28;19983;-80
2022/08/31 13:59:54;;;;;;;;;;;22.70;81.10;;;;;;4967021;28;19930;-83
2022/08/31 14:02:24;;;;;;;;;;;22.60;81.60;;;;;;4971294;28;19925;-81
2022/08/31 14:07:20;;;;;;;;;;;22.50;82.80;;;;;;4977077;28;19934;-81
2022/08/31 14:09:57;;;;;;;;;;;22.50;84.40;;;;;;4970497;28;20404;-80
2022/08/31 14:12:33;;;;;;;;;;;22.40;84.20;;;;;;4965527;28;19933;-81
2022/08/31 14:15:19;;;;;;;;;;;22.40;85.30;;;;;;4986161;28;19930;-79
2022/08/31 14:17:57;;;;;;;;;;;22.30;86.20;;;;;;4989536;28;19930;-78
2022/08/31 14:20:35;;;;;;;;;;;22.20;87.20;;;;;;4987679;28;19993;-79
2022/08/31 14:23:17;;;;;;;;;;;22.10;87.90;;;;;;4991473;28;19936;-80
2022/08/31 14:25:42;;;;;;;;;;;22.10;89.30;;;;;;4970210;28;20672;-84
2022/08/31 14:28:09;;;;;;;;;;;22.00;89.30;;;;;;4987851;28;19925;-82
2022/08/31 14:30:35;;;;;;;;;;;21.90;90.50;;;;;;4970574;28;19940;-82
2022/08/31 14:33:26;;;;;;;;;;;21.90;90.00;;;;;;4973420;28;20016;-79
2022/08/31 14:36:16;;;;;;;;;;;21.80;89.60;;;;;;4998988;28;20400;-80
2022/08/31 14:39:07;;;;;;;;;;;21.80;90.60;;;;;;4990502;28;20441;-82
2022/08/31 14:41:47;;;;;;;;;;;21.70;91.30;;;;;;4977357;28;19929;-78
2022/08/31 14:44:13;;;;;;;;;;;21.70;91.10;;;;;;4970937;28;20040;-81
2022/08/31 14:46:40;;;;;;;;;;;21.70;91.40;;;;;;4989177;28;20024;-78
2022/08/31 14:49:07;;;;;;;;;;;21.70;91.70;;;;;;4969064;28;19984;-79
2022/08/31 14:51:36;;;;;;;;;;;21.60;92.10;;;;;;4973256;28;19936;-80
2022/08/31 14:54:02;;;;;;;;;;;21.60;92.20;;;;;;4969261;28;20516;-79
2022/08/31 14:56:31;;;;;;;;;;;21.60;92.50;;;;;;4972509;28;19975;-80
2022/08/31 14:59:01;;;;;;;;;;;21.60;92.50;;;;;;4969172;28;19932;-80
2022/08/31 15:01:29;;;;;;;;;;;21.50;92.90;;;;;;4970682;28;20446;-82
2022/08/31 15:03:55;;;;;;;;;;;21.50;93.40;;;;;;4984263;28;19937;-81
2022/08/31 15:06:21;;;;;;;;;;;21.50;93.60;;;;;;4970952;28;20633;-82
2022/08/31 15:08:47;;;;;;;;;;;21.60;93.80;;;;;;4985042;28;19932;-84
2022/08/31 15:11:13;;;;;;;;;;;21.50;94.30;;;;;;4963973;28;19926;-82